sensor_id;sensor_type;location;lat;lon;timestamp;pressure;altitude;pressure_sealevel;temperature;humidity
69593;BME280;56796;50.122;14.468;2023-05-08T00:12:03;987.15;;;6.29;86.73
69593;BME280;56796;50.122;14.468;2023-05-08T00:31:28;987.23;;;6;88.06
69593;BME280;56796;50.122;14.468;2023-05-08T00:50:54;987.32;;;5.83;89.03
69593;BME280;56796;50.122;14.468;2023-05-08T01:10:19;987.43;;;5.62;89.47
69593;BME280;56796;50.122;14.468;2023-05-08T01:29:51;987.41;;;5.35;89.3
69593;BME280;56796;50.122;14.468;2023-05-08T01:49:09;987.5;;;5.2;89.25
69593;BME280;56796;50.122;14.468;2023-05-08T02:08:34;987.45;;;5.1;88.94
69593;BME280;56796;50.122;14.468;2023-05-08T02:27:59;987.56;;;5.03;88.77
69593;BME280;56796;50.122;14.468;2023-05-08T02:47:24;987.49;;;4.9;89.21
69593;BME280;56796;50.122;14.468;2023-05-08T03:06:51;987.75;;;4.87;88.99
69593;BME280;56796;50.122;14.468;2023-05-08T03:26:16;987.69;;;4.73;89.3
69593;BME280;56796;50.122;14.468;2023-05-08T03:45:42;987.82;;;4.81;89.48
69593;BME280;56796;50.122;14.468;2023-05-08T04:05:16;987.92;;;5.19;88.42
69593;BME280;56796;50.122;14.468;2023-05-08T04:24:39;988.06;;;5.61;86.63
69593;BME280;56796;50.122;14.468;2023-05-08T04:44:04;988.2;;;5.88;84.08
69593;BME280;56796;50.122;14.468;2023-05-08T05:03:32;988.27;;;6.37;82.23
69593;BME280;56796;50.122;14.468;2023-05-08T05:22:59;988.29;;;7.06;80.55
69593;BME280;56796;50.122;14.468;2023-05-08T05:42:27;988.42;;;7.55;78.42
69593;BME280;56796;50.122;14.468;2023-05-08T06:01:54;988.45;;;7.9;77.59
69593;BME280;56796;50.122;14.468;2023-05-08T06:21:26;988.48;;;9.47;74.39
69593;BME280;56796;50.122;14.468;2023-05-08T06:40:58;988.48;;;10.1;72.28
69593;BME280;56796;50.122;14.468;2023-05-08T07:00:30;988.42;;;11.36;68.64
69593;BME280;56796;50.122;14.468;2023-05-08T07:20:02;988.5;;;11.84;66.18
69593;BME280;56796;50.122;14.468;2023-05-08T07:39:31;988.5;;;12.25;65.37
69593;BME280;56796;50.122;14.468;2023-05-08T07:59:01;988.57;;;13.17;59.83
69593;BME280;56796;50.122;14.468;2023-05-08T08:18:29;988.5;;;13.85;60.5
69593;BME280;56796;50.122;14.468;2023-05-08T08:38:02;988.42;;;15.38;56.13
69593;BME280;56796;50.122;14.468;2023-05-08T08:57:35;988.42;;;15.78;52.11
69593;BME280;56796;50.122;14.468;2023-05-08T09:17:03;988.3;;;16.79;51.05
69593;BME280;56796;50.122;14.468;2023-05-08T09:36:31;988.33;;;16.59;47.8
69593;BME280;56796;50.122;14.468;2023-05-08T09:56:01;988.17;;;17.7;45.53
69593;BME280;56796;50.122;14.468;2023-05-08T10:15:29;988.15;;;17.18;44.39
69593;BME280;56796;50.122;14.468;2023-05-08T10:34:57;988.03;;;18.83;41.44
69593;BME280;56796;50.122;14.468;2023-05-08T10:54:25;987.86;;;19.17;39.97
69593;BME280;56796;50.122;14.468;2023-05-08T11:13:52;987.7;;;19.18;40.28
69593;BME280;56796;50.122;14.468;2023-05-08T11:33:18;987.6;;;19.06;41.34
69593;BME280;56796;50.122;14.468;2023-05-08T11:52:44;987.36;;;19.95;38.99
69593;BME280;56796;50.122;14.468;2023-05-08T12:12:12;987.22;;;19.75;37.91
69593;BME280;56796;50.122;14.468;2023-05-08T12:31:40;987.18;;;20.39;36.83
69593;BME280;56796;50.122;14.468;2023-05-08T12:51:06;987.01;;;20.36;37.18
69593;BME280;56796;50.122;14.468;2023-05-08T13:29:58;986.82;;;20.61;36.29
69593;BME280;56796;50.122;14.468;2023-05-08T13:49:27;986.71;;;19.89;36.83
69593;BME280;56796;50.122;14.468;2023-05-08T14:08:41;986.63;;;20.34;36.66
69593;BME280;56796;50.122;14.468;2023-05-08T14:28:09;986.52;;;20.48;35.26
69593;BME280;56796;50.122;14.468;2023-05-08T14:47:34;986.43;;;19.95;34.51
69593;BME280;56796;50.122;14.468;2023-05-08T15:06:59;986.44;;;19.45;34.3
69593;BME280;56796;50.122;14.468;2023-05-08T15:26:24;986.34;;;19.29;37.3
69593;BME280;56796;50.122;14.468;2023-05-08T15:45:48;986.38;;;18.79;37.78
69593;BME280;56796;50.122;14.468;2023-05-08T16:05:16;986.25;;;18.39;39.89
69593;BME280;56796;50.122;14.468;2023-05-08T16:24:33;986.13;;;17.49;43.43
69593;BME280;56796;50.122;14.468;2023-05-08T16:43:57;986.16;;;17.36;44.08
69593;BME280;56796;50.122;14.468;2023-05-08T17:03:21;986.24;;;16.73;44.78
69593;BME280;56796;50.122;14.468;2023-05-08T17:22:48;986.23;;;15.82;47.41
69593;BME280;56796;50.122;14.468;2023-05-08T17:42:04;986.39;;;14.8;50.31
69593;BME280;56796;50.122;14.468;2023-05-08T18:01:28;986.58;;;14.02;51.29
69593;BME280;56796;50.122;14.468;2023-05-08T18:20:50;986.79;;;13.25;53.74
69593;BME280;56796;50.122;14.468;2023-05-08T18:40:14;986.8;;;12.75;55.48
69593;BME280;56796;50.122;14.468;2023-05-08T18:59:39;987.08;;;12.39;56.19
69593;BME280;56796;50.122;14.468;2023-05-08T19:19:04;987.18;;;12.02;56.56
69593;BME280;56796;50.122;14.468;2023-05-08T19:38:30;987.17;;;11.48;58.19
69593;BME280;56796;50.122;14.468;2023-05-08T19:57:55;987.27;;;11.16;59.09
69593;BME280;56796;50.122;14.468;2023-05-08T20:17:20;987.38;;;10.84;60.24
69593;BME280;56796;50.122;14.468;2023-05-08T20:36:49;987.52;;;10.48;61.92
69593;BME280;56796;50.122;14.468;2023-05-08T20:56:06;987.51;;;10.2;62.91
69593;BME280;56796;50.122;14.468;2023-05-08T21:15:31;987.56;;;9.93;64.24
69593;BME280;56796;50.122;14.468;2023-05-08T21:34:56;987.58;;;9.75;65.23
69593;BME280;56796;50.122;14.468;2023-05-08T21:54:21;987.58;;;9.47;66.78
69593;BME280;56796;50.122;14.468;2023-05-08T22:13:47;987.66;;;9.26;67.56
69593;BME280;56796;50.122;14.468;2023-05-08T22:33:12;987.58;;;9.04;68.5
69593;BME280;56796;50.122;14.468;2023-05-08T22:52:38;987.45;;;8.87;68.78
69593;BME280;56796;50.122;14.468;2023-05-08T23:12:05;987.37;;;8.72;68.37
69593;BME280;56796;50.122;14.468;2023-05-08T23:31:31;987.41;;;8.59;67.85
69593;BME280;56796;50.122;14.468;2023-05-08T23:50:56;987.31;;;8.42;67.87
